Mulhall, OK (73063)

1:51 AM CDT on September 01, 2015 (GMT -0500)
NE of town | | Change Station
CLOSE
Current Station
Personal Weather Station
Location: Guthrie, OK
Elevation: 1115 ft
Nearby Weather Stations

Elev 1115 ft 35.91 °N, 97.35 °W | Updated 1 second ago

Clear
Clear
75.7 °F
Feels Like 77 °F
N
10.0
Wind Variable Wind from SSE
Gusts 12.0 mph

Today
High -- | Low -- °F
--% Chance of Precip.
Yesterday
High -- | Low -- °F
Precip. -- in
7:01 AM 7:57 PM
Waning Gibbous, 91% visible
Pressure 29.97 in
Visibility 10.0 miles
Clouds Clear
Heat Index 77 °F
Dew Point 64 °F
Humidity 68%
Rainfall 0.00 in
Snow Depth Not available.
UV 0.0 out of 12
Pollen 9.80 out of 12
Air Quality Not available.
Flu Activity Not available.
METAR KGOK 010553Z AUTO 16009KT 10SM CLR 25/17 A3000 RMK AO2 SLP147 T02500172 10328 20250 403610217 51007
Pressure 29.97 in
Visibility 10.0 miles
Clouds Clear
Heat Index 77 °F
Dew Point 64 °F
Humidity 68%
Rainfall 0.00 in
Snow Depth Not available.
UV 0.0 out of 12
Pollen 9.80 out of 12
Air Quality Not available.
Flu Activity Not available.
METAR KGOK 010553Z AUTO 16009KT 10SM CLR 25/17 A3000 RMK AO2 SLP147 T02500172 10328 20250 403610217 51007

10-Day Weather Forecast

×

Almanac

Astronomy

Sep. 01, 2015 Rise Set
Actual Time
Civil Twilight
Nautical Twilight
Astronomical Twilight
Moon
Length of Visible Light
Length of Day
Tomorrow will be .
, % of the Moon is Illuminated

Today's Extremes

State Highs State Lows

Community

WunderPhotos

Upload Photos

1,851,488 photos uploaded!

WunderBlogs® & News

Nearby

Air Quality

  Air Quality AQ Index Pollutant
Not available.

Snow Depth

Station Depth Elevation

Earthquake Activity

City Distance Mag. Time & Date
Minimum magnitude displayed is 2.5.

Coastal Water Temperatures

Place Temperature

Stations

Nearby Weather Stations

Station Location Temp. Windchill Dew Point Humidity Wind Precip. Elev Updated Type